Terminal Aerodrome Forecast
Issued by NWS Cleveland, OH

Home | Current Version | Previous Version | Text Only | Print | Product List | Glossary On
Versions: 1 2 3 4 5 6 7 8 9 10 11 12 13 14 15 16 17
000
FTUS41 KCLE 231122
TAFERI
TAF
KERI 231122Z 2312/2412 21010KT P6SM BKN035
      TEMPO 2312/2314 BKN030
     FM231500 21011KT P6SM BKN080
     FM240200 22011G19KT P6SM SCT060=

USA.gov is the U.S. government's official web portal to all federal, state and local government web resources and services.